Bee House, Texas
Current Conditions -  °F | °C
As of 6:35 PM on Monday 24 Nov 2014 (Local Time) from KMNZ Reporting Station
Clear Clear  
Wind Chill: 52°   Ceiling: Unl
Heat Index: 52°   Visibility: 10mi
Dew Point: 23°   Wind: 0mph
Humidity: 32%   Direction: NA
Pressure: 30.11"   Gusts: NA
Location:  31.463°N, 98.243°W
Report Text: KMNZ 250035Z AUTO 00000KT 10SM CLR 11/M05 A3011 RMK AO2 T01111052
Loading
Personal Weather Stations






























Interactive Weather Map New forecast layout! Learn more

10-Day Weather Forecast

Advertisements
Track Severe Weather on mobile